createdAt,value
2019-05-28T00:01:26.727Z,13.13
2019-05-28T00:04:04.376Z,13.27
2019-05-28T00:06:34.492Z,13.00
2019-05-28T00:09:16.945Z,13.77
2019-05-28T00:11:46.499Z,17.27
2019-05-28T00:14:15.738Z,13.70
2019-05-28T00:16:44.706Z,11.17
2019-05-28T00:19:21.955Z,14.60
2019-05-28T00:21:52.097Z,16.43
2019-05-28T00:24:27.567Z,13.43
2019-05-28T00:26:57.239Z,10.10
2019-05-28T00:29:26.484Z,12.17
2019-05-28T00:31:55.711Z,9.00
2019-05-28T00:34:24.694Z,12.53
2019-05-28T00:36:53.574Z,11.20
2019-05-28T00:39:29.854Z,13.77
2019-05-28T00:41:58.774Z,16.07
2019-05-28T00:44:46.631Z,12.20
2019-05-28T00:47:16.184Z,14.27
2019-05-28T00:49:45.082Z,14.20
2019-05-28T00:52:22.447Z,12.20
2019-05-28T00:54:51.902Z,12.97
2019-05-28T00:57:29.300Z,15.60
2019-05-28T00:59:59.559Z,13.03
2019-05-28T01:02:29.127Z,13.60
2019-05-28T01:04:58.488Z,13.47
2019-05-28T01:07:28.291Z,7.93
2019-05-28T01:09:57.890Z,9.33
2019-05-28T01:12:35.351Z,10.27
2019-05-28T01:15:04.334Z,7.30
2019-05-28T01:17:33.915Z,11.20
2019-05-28T01:20:05.888Z,7.13
2019-05-28T01:22:35.079Z,7.17
2019-05-28T01:25:05.349Z,9.70
2019-05-28T01:27:34.342Z,9.83
2019-05-28T01:30:03.427Z,9.00
2019-05-28T01:32:40.691Z,11.80
2019-05-28T01:35:10.247Z,11.83
2019-05-28T01:37:39.794Z,9.93
2019-05-28T01:40:09.318Z,9.73
2019-05-28T01:42:46.396Z,8.60
2019-05-28T01:45:16.286Z,11.13
2019-05-28T01:47:45.819Z,10.70
2019-05-28T01:50:26.734Z,10.83
2019-05-28T01:52:56.286Z,6.83
2019-05-28T01:55:25.454Z,10.97
2019-05-28T01:57:54.442Z,10.57
2019-05-28T02:00:23.445Z,9.97
2019-05-28T02:02:53.362Z,7.77
2019-05-28T02:05:22.807Z,6.93
2019-05-28T02:07:59.968Z,7.10
2019-05-28T02:10:29.628Z,9.43
2019-05-28T02:12:59.475Z,8.37
2019-05-28T02:15:29.130Z,13.53
2019-05-28T02:17:58.785Z,6.23
2019-05-28T02:20:35.999Z,9.33
2019-05-28T02:23:05.015Z,8.40
2019-05-28T02:25:34.578Z,10.97
2019-05-28T02:28:13.030Z,12.00
2019-05-28T02:30:42.015Z,10.83
2019-05-28T02:33:11.579Z,6.63
2019-05-28T02:35:41.130Z,11.67
2019-05-28T02:38:10.415Z,7.67
2019-05-28T02:40:39.318Z,7.30
2019-05-28T02:43:15.680Z,9.43
2019-05-28T02:45:45.682Z,8.33
2019-05-28T02:48:14.994Z,9.70
2019-05-28T02:51:04.082Z,8.87
2019-05-28T02:53:33.274Z,6.23
2019-05-28T02:56:04.662Z,6.70
2019-05-28T02:58:36.401Z,8.00
2019-05-28T03:01:08.299Z,8.13
2019-05-28T03:03:37.938Z,6.77
2019-05-28T03:06:08.852Z,11.07
2019-05-28T03:08:37.847Z,8.63
2019-05-28T03:11:15.014Z,13.80
2019-05-28T03:13:44.566Z,7.67
2019-05-28T03:16:15.116Z,9.97
2019-05-28T03:18:44.107Z,8.30
2019-05-28T03:21:13.110Z,4.63
2019-05-28T03:23:44.097Z,6.87
2019-05-28T03:26:23.565Z,8.80
2019-05-28T03:28:51.996Z,7.67
2019-05-28T03:31:21.640Z,5.80
2019-05-28T03:33:58.790Z,9.20
2019-05-28T03:36:31.567Z,7.70
2019-05-28T03:39:01.824Z,5.63
2019-05-28T03:41:31.766Z,9.23
2019-05-28T03:44:08.656Z,6.07
2019-05-28T03:46:37.642Z,11.00
2019-05-28T03:49:10.268Z,10.27
2019-05-28T03:51:39.827Z,5.40
2019-05-28T03:54:17.785Z,11.23
2019-05-28T03:56:47.029Z,6.40
2019-05-28T03:59:16.239Z,7.83
2019-05-28T04:01:45.874Z,10.73
2019-05-28T04:04:15.419Z,9.27
2019-05-28T04:06:44.983Z,7.90
2019-05-28T04:09:20.870Z,6.80
2019-05-28T04:11:49.781Z,9.20
2019-05-28T04:14:19.345Z,6.53
2019-05-28T04:16:49.279Z,13.23
2019-05-28T04:19:18.184Z,11.30
2019-05-28T04:21:57.536Z,10.97
2019-05-28T04:24:18.045Z,6.77
2019-05-28T04:26:47.209Z,7.57
2019-05-28T04:29:16.792Z,10.57
2019-05-28T04:31:52.979Z,6.80
2019-05-28T04:34:22.808Z,8.90
2019-05-28T04:36:52.354Z,6.73
2019-05-28T04:39:22.051Z,9.43
2019-05-28T04:41:51.596Z,13.77
2019-05-28T04:44:20.853Z,8.97
2019-05-28T04:46:49.825Z,10.27
2019-05-28T04:49:18.718Z,9.33
2019-05-28T04:51:56.368Z,11.37
2019-05-28T04:54:25.371Z,10.77
2019-05-28T04:56:54.526Z,9.23
2019-05-28T04:59:24.089Z,13.23
2019-05-28T05:01:53.761Z,10.87
2019-05-28T05:04:23.624Z,8.20
2019-05-28T05:06:53.175Z,9.23
2019-05-28T05:09:29.442Z,9.47
2019-05-28T05:11:59.822Z,13.80
2019-05-28T05:14:29.626Z,8.43
2019-05-28T05:17:01.323Z,11.90
2019-05-28T05:19:30.195Z,11.20
2019-05-28T05:21:59.743Z,16.60
2019-05-28T05:24:29.413Z,12.53
2019-05-28T05:26:58.978Z,9.73
2019-05-28T05:29:28.214Z,8.30
2019-05-28T05:31:57.495Z,16.50
2019-05-28T05:34:26.383Z,15.93
2019-05-28T05:37:04.405Z,18.23
2019-05-28T05:39:35.027Z,9.00
2019-05-28T05:42:05.015Z,14.57
2019-05-28T05:44:34.226Z,11.43
2019-05-28T05:47:04.265Z,10.63
2019-05-28T05:49:33.970Z,12.57
2019-05-28T05:52:04.643Z,14.00
2019-05-28T05:54:41.878Z,13.57
2019-05-28T05:57:10.763Z,14.83
2019-05-28T05:59:48.733Z,13.93
2019-05-28T06:02:19.000Z,14.67
2019-05-28T06:04:47.837Z,10.83
2019-05-28T06:07:17.500Z,11.60
2019-05-28T06:09:46.751Z,17.63
2019-05-28T06:12:16.326Z,12.23
2019-05-28T06:14:46.058Z,11.37
2019-05-28T06:17:14.948Z,12.20
2019-05-28T06:19:43.837Z,14.27
2019-05-28T06:22:13.511Z,14.50
2019-05-28T06:24:43.092Z,13.53
2019-05-28T06:27:12.249Z,12.87
2019-05-28T06:29:41.929Z,12.10
2019-05-28T06:32:11.470Z,10.67
2019-05-28T06:34:41.123Z,11.37
2019-05-28T06:37:10.913Z,10.60
2019-05-28T06:39:39.799Z,8.63
2019-05-28T06:42:09.398Z,13.60
2019-05-28T06:44:39.053Z,8.13
2019-05-28T06:47:08.614Z,10.33
2019-05-28T06:49:44.567Z,14.00
2019-05-28T06:52:14.171Z,15.17
2019-05-28T06:54:43.735Z,10.83
2019-05-28T06:57:22.250Z,11.53
2019-05-28T06:59:46.410Z,17.07
2019-05-28T07:02:16.618Z,15.80
2019-05-28T07:04:45.519Z,10.63
2019-05-28T07:07:15.224Z,11.30
2019-05-28T07:09:44.182Z,12.50
2019-05-28T07:12:13.755Z,11.53
2019-05-28T07:14:42.694Z,13.70
2019-05-28T07:17:12.294Z,10.13
2019-05-28T07:19:41.867Z,11.13
2019-05-28T07:22:10.863Z,15.03
2019-05-28T07:24:40.523Z,13.40
2019-05-28T07:27:10.092Z,15.03
2019-05-28T07:29:40.036Z,13.03
2019-05-28T07:32:08.919Z,9.83
2019-05-28T07:34:38.201Z,9.33
2019-05-28T07:37:08.222Z,15.17
2019-05-28T07:39:37.148Z,10.53
2019-05-28T07:42:06.495Z,9.87
2019-05-28T07:44:36.132Z,11.37
2019-05-28T07:47:11.505Z,9.13
2019-05-28T07:49:41.912Z,10.97
2019-05-28T07:52:13.377Z,13.80
2019-05-28T07:54:43.279Z,7.63
2019-05-28T07:57:12.883Z,10.87
2019-05-28T07:59:42.077Z,10.87
2019-05-28T08:02:11.669Z,15.07
2019-05-28T08:07:27.326Z,10.33
2019-05-28T08:09:57.146Z,12.50
2019-05-28T08:12:26.033Z,14.20
2019-05-28T08:14:56.074Z,11.63
2019-05-28T08:17:25.653Z,10.73
2019-05-28T08:19:54.837Z,7.90
2019-05-28T08:22:38.549Z,15.27
2019-05-28T08:24:55.073Z,12.50
2019-05-28T08:27:24.161Z,13.60
2019-05-28T08:29:56.435Z,10.73
2019-05-28T08:32:26.016Z,12.90
2019-05-28T08:35:04.853Z,10.77
2019-05-28T08:37:26.208Z,9.90
2019-05-28T08:40:05.937Z,12.50
2019-05-28T08:42:35.401Z,9.77
2019-05-28T08:45:04.699Z,13.63
2019-05-28T08:47:40.854Z,7.13
2019-05-28T08:50:09.942Z,12.83
2019-05-28T08:52:38.868Z,11.87
2019-05-28T08:55:09.469Z,11.13
2019-05-28T08:57:48.183Z,9.60
2019-05-28T09:00:38.159Z,8.47
2019-05-28T09:03:08.004Z,10.03
2019-05-28T09:05:37.578Z,6.03
2019-05-28T09:08:37.871Z,13.80
2019-05-28T09:10:59.678Z,9.50
2019-05-28T09:13:29.344Z,11.67
2019-05-28T09:15:58.932Z,12.13
2019-05-28T09:25:06.569Z,12.33
2019-05-28T09:27:36.127Z,8.87
2019-05-28T09:30:05.714Z,8.53
2019-05-28T09:32:35.923Z,10.00
2019-05-28T09:35:04.931Z,9.33
2019-05-28T09:37:33.826Z,14.73
2019-05-28T09:40:06.159Z,11.03
2019-05-28T09:42:38.010Z,9.30
2019-05-28T09:45:21.771Z,10.33
2019-05-28T09:47:40.589Z,6.37
2019-05-28T09:50:29.978Z,4.20
2019-05-28T09:52:54.549Z,3.60
2019-05-28T09:55:18.280Z,2.73
2019-05-28T09:57:48.222Z,1.43
2019-05-28T10:00:19.365Z,2.13
2019-05-28T10:02:48.933Z,3.20
2019-05-28T10:05:19.379Z,4.30
2019-05-28T10:07:49.062Z,3.50
2019-05-28T10:10:19.668Z,2.50
2019-05-28T10:12:49.004Z,1.90
2019-05-28T10:15:18.976Z,2.20
2019-05-28T10:18:06.458Z,3.13
2019-05-28T10:20:38.134Z,2.57
2019-05-28T10:23:07.332Z,3.77
2019-05-28T10:25:36.223Z,6.90
2019-05-28T10:28:05.996Z,3.17
2019-05-28T10:30:35.357Z,3.20
2019-05-28T10:33:04.498Z,2.30
2019-05-28T10:35:34.180Z,3.50
2019-05-28T10:38:14.828Z,3.10
2019-05-28T10:40:35.998Z,1.63
2019-05-28T10:43:09.478Z,0.73
2019-05-28T10:45:36.703Z,1.83
2019-05-28T10:48:06.367Z,1.27
2019-05-28T10:50:35.332Z,2.83
2019-05-28T10:53:04.672Z,3.47
2019-05-28T10:55:37.100Z,1.50
2019-05-28T10:58:07.380Z,1.60
2019-05-28T11:00:36.991Z,0.80
2019-05-28T11:03:09.466Z,0.60
2019-05-28T11:05:39.201Z,2.50
2019-05-28T11:08:08.763Z,1.60
2019-05-28T11:10:38.028Z,1.77
2019-05-28T11:13:07.766Z,1.30
2019-05-28T11:15:36.698Z,1.53
2019-05-28T11:18:06.407Z,0.97
2019-05-28T11:20:35.381Z,0.90
2019-05-28T11:23:05.832Z,1.00
2019-05-28T11:25:35.611Z,0.67
2019-05-28T11:28:07.285Z,2.13
2019-05-28T11:30:36.992Z,2.13
2019-05-28T11:33:07.147Z,2.93
2019-05-28T11:35:36.172Z,3.23
2019-05-28T11:38:08.458Z,1.47
2019-05-28T11:40:47.386Z,2.07
2019-05-28T11:43:17.039Z,1.90
2019-05-28T11:45:46.633Z,1.73
2019-05-28T11:48:16.758Z,2.93
2019-05-28T11:50:46.419Z,1.97
2019-05-28T11:53:16.477Z,2.17
2019-05-28T11:55:45.571Z,2.20
2019-05-28T11:58:15.303Z,1.47
2019-05-28T12:00:44.979Z,2.40
2019-05-28T12:03:14.680Z,3.80
2019-05-28T12:05:43.723Z,4.27
2019-05-28T12:08:13.978Z,3.93
2019-05-28T12:10:44.392Z,3.77
2019-05-28T12:13:13.379Z,2.10
2019-05-28T12:15:42.306Z,6.13
2019-05-28T12:18:12.541Z,4.93
2019-05-28T12:20:49.632Z,4.27
2019-05-28T12:23:20.181Z,4.07
2019-05-28T12:25:49.872Z,4.47
2019-05-28T12:28:36.375Z,6.30
2019-05-28T12:30:57.494Z,3.97
2019-05-28T12:33:35.808Z,4.23
2019-05-28T12:36:05.938Z,4.80
2019-05-28T12:38:35.126Z,4.87
2019-05-28T12:41:04.868Z,3.53
2019-05-28T12:43:34.544Z,3.57
2019-05-28T12:46:04.319Z,5.53
2019-05-28T12:48:33.971Z,5.27
2019-05-28T12:51:03.208Z,5.20
2019-05-28T12:53:49.390Z,10.87
2019-05-28T12:56:04.150Z,5.70
2019-05-28T12:58:42.538Z,4.80
2019-05-28T13:01:07.708Z,5.67
2019-05-28T13:03:37.282Z,6.53
2019-05-28T13:06:06.419Z,4.07
2019-05-28T13:08:35.339Z,2.83
2019-05-28T13:11:07.490Z,3.27
2019-05-28T13:13:37.161Z,2.83
2019-05-28T13:16:06.751Z,4.00
2019-05-28T13:18:36.359Z,2.60
2019-05-28T13:21:06.039Z,3.93
2019-05-28T13:23:34.954Z,4.27
2019-05-28T13:26:03.898Z,4.03
2019-05-28T13:28:33.500Z,5.43
2019-05-28T13:31:03.778Z,5.67
2019-05-28T13:33:33.350Z,3.80
2019-05-28T13:36:03.231Z,5.37
2019-05-28T13:38:32.821Z,5.30
2019-05-28T13:41:11.600Z,7.27
2019-05-28T13:43:41.210Z,6.13
2019-05-28T13:46:10.766Z,2.80
2019-05-28T13:48:39.787Z,4.17
2019-05-28T13:51:09.401Z,3.40
2019-05-28T13:53:43.580Z,3.60
2019-05-28T13:56:13.165Z,4.33
2019-05-28T14:05:00.236Z,3.20
2019-05-28T14:07:30.599Z,3.17
2019-05-28T14:10:00.058Z,3.17
2019-05-28T14:12:34.638Z,2.90
2019-05-28T14:15:04.950Z,3.47
2019-05-28T14:17:34.914Z,4.57
2019-05-28T14:20:14.275Z,4.83
2019-05-28T14:22:44.567Z,5.03
2019-05-28T14:25:17.074Z,4.03
2019-05-28T14:27:46.597Z,3.57
2019-05-28T14:30:17.391Z,4.50
2019-05-28T14:32:56.045Z,4.83
2019-05-28T14:35:30.763Z,5.33
2019-05-28T14:38:00.317Z,5.07
2019-05-28T14:40:34.706Z,5.97
2019-05-28T14:43:03.998Z,5.97
2019-05-28T14:45:33.827Z,5.43
2019-05-28T14:48:20.239Z,8.10
2019-05-28T14:50:49.125Z,6.57
2019-05-28T14:53:22.661Z,6.90
2019-05-28T14:55:52.297Z,4.80
2019-05-28T14:58:21.634Z,6.20
2019-05-28T15:00:50.561Z,6.33
2019-05-28T15:03:20.567Z,3.87
2019-05-28T15:05:50.230Z,3.20
2019-05-28T15:08:19.112Z,3.63
2019-05-28T15:10:48.237Z,5.40
2019-05-28T15:13:25.670Z,3.53
2019-05-28T15:15:54.696Z,3.27
2019-05-28T15:18:24.819Z,3.30
2019-05-28T15:20:55.398Z,4.00
2019-05-28T15:23:24.680Z,3.40
2019-05-28T15:25:54.553Z,4.63
2019-05-28T15:28:25.017Z,4.00
2019-05-28T15:30:56.422Z,4.63
2019-05-28T15:33:25.326Z,3.40
2019-05-28T15:35:56.311Z,3.23
2019-05-28T15:38:25.399Z,4.33
2019-05-28T15:43:37.701Z,4.03
2019-05-28T15:46:09.978Z,3.53
2019-05-28T15:48:39.526Z,4.00
2019-05-28T15:51:19.981Z,2.83
2019-05-28T15:54:00.350Z,3.73
2019-05-28T15:56:29.297Z,3.43
2019-05-28T16:01:41.611Z,4.03
2019-05-28T16:04:12.836Z,6.30
2019-05-28T16:06:41.879Z,8.60
2019-05-28T16:09:13.377Z,4.30
2019-05-28T16:11:42.553Z,5.73
2019-05-28T16:14:12.295Z,2.90
2019-05-28T16:16:41.581Z,4.90
2019-05-28T16:19:10.637Z,9.23
2019-05-28T16:21:42.198Z,3.83
2019-05-28T16:24:11.356Z,5.80
2019-05-28T16:29:17.946Z,6.03
2019-05-28T16:31:47.641Z,5.07
2019-05-28T16:34:16.861Z,4.07
2019-05-28T16:36:51.103Z,4.10
2019-05-28T16:39:20.317Z,6.37
2019-05-28T16:41:49.578Z,6.00
2019-05-28T16:44:19.924Z,7.20
2019-05-28T16:46:48.998Z,10.67
2019-05-28T16:49:18.585Z,6.50
2019-05-28T16:51:47.558Z,7.13
2019-05-28T16:54:19.443Z,7.40
2019-05-28T16:56:47.377Z,6.30
2019-05-28T16:59:23.705Z,7.93
2019-05-28T17:01:52.535Z,7.60
2019-05-28T17:04:22.585Z,6.30
2019-05-28T17:06:52.297Z,5.40
2019-05-28T17:09:21.220Z,5.90
2019-05-28T17:11:50.205Z,6.40
2019-05-28T17:14:26.902Z,3.60
2019-05-28T17:16:52.232Z,3.17
2019-05-28T17:19:21.924Z,3.87
2019-05-28T17:21:51.917Z,2.67
2019-05-28T17:24:30.632Z,3.00
2019-05-28T17:26:59.558Z,4.33
2019-05-28T17:29:28.539Z,2.70
2019-05-28T17:31:58.124Z,3.50
2019-05-28T17:34:27.006Z,2.33
2019-05-28T17:36:56.940Z,2.93
2019-05-28T17:39:28.315Z,3.13
2019-05-28T17:42:06.614Z,3.27
2019-05-28T17:44:35.690Z,4.43
2019-05-28T17:47:05.086Z,3.90
2019-05-28T17:49:34.896Z,2.40
2019-05-28T17:52:03.990Z,3.20
2019-05-28T17:54:32.900Z,3.03
2019-05-28T17:57:02.510Z,3.67
2019-05-28T17:59:32.135Z,3.13
2019-05-28T18:02:02.004Z,2.30
2019-05-28T18:04:30.902Z,2.73
2019-05-28T18:07:00.554Z,4.87
2019-05-28T18:09:29.747Z,2.07
2019-05-28T18:11:59.589Z,2.43
2019-05-28T18:14:28.570Z,1.37
2019-05-28T18:16:57.466Z,2.93
2019-05-28T18:19:27.020Z,2.97
2019-05-28T18:21:56.003Z,2.33
2019-05-28T18:24:25.558Z,5.03
2019-05-28T18:27:01.291Z,1.93
2019-05-28T18:29:30.836Z,2.27
2019-05-28T18:32:00.639Z,3.70
2019-05-28T18:34:30.222Z,1.77
2019-05-28T18:37:01.799Z,3.67
2019-05-28T18:39:31.378Z,5.20
2019-05-28T18:42:05.443Z,2.20
2019-05-28T18:44:35.010Z,3.00
2019-05-28T18:47:13.950Z,2.00
2019-05-28T18:49:43.655Z,1.83
2019-05-28T18:52:16.846Z,1.80
2019-05-28T18:54:46.458Z,2.70
2019-05-28T18:57:16.026Z,2.53
2019-05-28T18:59:44.963Z,2.97
2019-05-28T19:02:14.007Z,3.03
2019-05-28T19:04:46.404Z,3.60
2019-05-28T19:07:16.171Z,3.17
2019-05-28T19:09:46.245Z,3.87
2019-05-28T19:12:16.174Z,5.53
2019-05-28T19:14:46.218Z,4.33
2019-05-28T19:17:15.842Z,3.90
2019-05-28T19:19:45.402Z,6.93
2019-05-28T19:22:14.703Z,3.93
2019-05-28T19:24:44.467Z,6.40
2019-05-28T19:27:13.347Z,8.07
2019-05-28T19:29:49.242Z,8.93
2019-05-28T19:32:16.984Z,6.23
2019-05-28T19:34:48.601Z,5.97
2019-05-28T19:37:17.150Z,5.60
2019-05-28T19:39:54.424Z,4.60
2019-05-28T19:42:24.710Z,6.80
2019-05-28T19:44:53.626Z,6.60
2019-05-28T19:47:23.278Z,5.60
2019-05-28T19:49:52.936Z,7.40
2019-05-28T19:52:22.723Z,6.83
2019-05-28T19:54:52.867Z,5.17
2019-05-28T19:57:31.699Z,5.43
2019-05-28T20:00:01.335Z,6.77
2019-05-28T20:02:30.879Z,7.00
2019-05-28T20:04:59.776Z,7.00
2019-05-28T20:07:34.834Z,5.77
2019-05-28T20:10:07.309Z,5.13
2019-05-28T20:12:36.285Z,5.87
2019-05-28T20:15:05.498Z,8.50
2019-05-28T20:17:35.103Z,7.13
2019-05-28T20:20:04.391Z,4.57
2019-05-28T20:23:02.582Z,5.13
2019-05-28T20:25:32.197Z,5.20
2019-05-28T20:28:09.917Z,6.33
2019-05-28T20:30:40.541Z,5.83
2019-05-28T20:33:09.733Z,8.77
2019-05-28T20:35:45.551Z,9.87
2019-05-28T20:38:15.201Z,11.90
2019-05-28T20:40:44.572Z,15.83
2019-05-28T20:43:15.025Z,12.10
2019-05-28T20:45:44.014Z,11.93
2019-05-28T20:48:12.902Z,13.50
2019-05-28T20:50:42.544Z,11.63
2019-05-28T20:53:12.697Z,7.77
2019-05-28T20:55:41.946Z,10.17
2019-05-28T20:58:13.097Z,6.57
2019-05-28T21:00:42.546Z,10.93
2019-05-28T21:03:24.284Z,11.07
2019-05-28T21:05:53.635Z,8.73
2019-05-28T21:08:23.171Z,7.00
2019-05-28T21:10:52.635Z,12.47
2019-05-28T21:13:22.515Z,7.67
2019-05-28T21:15:52.600Z,11.60
2019-05-28T21:18:22.164Z,9.40
2019-05-28T21:20:52.177Z,13.87
2019-05-28T21:23:21.471Z,9.53
2019-05-28T21:28:13.103Z,8.25
2019-05-28T21:30:43.498Z,10.37
2019-05-28T21:33:13.035Z,7.70
2019-05-28T21:35:43.501Z,8.77
2019-05-28T21:38:13.126Z,10.80
2019-05-28T21:40:42.698Z,9.23
2019-05-28T21:43:12.334Z,7.50
2019-05-28T21:45:46.695Z,8.43
2019-05-28T21:48:16.333Z,7.13
2019-05-28T21:50:45.236Z,7.07
2019-05-28T21:53:14.574Z,6.93
2019-05-28T21:55:43.560Z,6.37
2019-05-28T21:58:13.099Z,6.03
2019-05-28T22:00:48.570Z,6.80
2019-05-28T22:03:18.131Z,7.30
2019-05-28T22:05:47.007Z,6.37
2019-05-28T22:08:23.054Z,7.97
2019-05-28T22:10:52.578Z,5.67
2019-05-28T22:13:28.274Z,5.57
2019-05-28T22:16:05.822Z,6.17
2019-05-28T22:18:35.475Z,5.73
2019-05-28T22:21:23.071Z,10.13
2019-05-28T22:23:52.033Z,9.40
2019-05-28T22:26:21.938Z,6.80
2019-05-28T22:28:50.809Z,7.33
2019-05-28T22:31:24.732Z,6.80
2019-05-28T22:33:57.071Z,6.37
2019-05-28T22:36:27.059Z,8.97
2019-05-28T22:39:09.277Z,7.77
2019-05-28T22:41:40.365Z,8.07
2019-05-28T22:44:09.243Z,9.40
2019-05-28T22:46:38.588Z,10.30
2019-05-28T22:49:08.121Z,9.17
2019-05-28T22:51:42.433Z,9.50
2019-05-28T22:54:12.089Z,9.70
2019-05-28T22:56:41.614Z,9.27
2019-05-28T22:59:11.167Z,7.20
2019-05-28T23:01:40.810Z,12.20
2019-05-28T23:04:10.142Z,10.53
2019-05-28T23:06:39.706Z,10.33
2019-05-28T23:09:09.851Z,11.23
2019-05-28T23:11:39.378Z,10.57
2019-05-28T23:14:08.272Z,12.23
2019-05-28T23:16:37.929Z,12.53
2019-05-28T23:19:11.641Z,11.80
2019-05-28T23:21:40.995Z,10.40
2019-05-28T23:24:11.433Z,9.67
2019-05-28T23:26:40.996Z,12.17
2019-05-28T23:29:10.541Z,9.93
2019-05-28T23:31:46.963Z,9.03
2019-05-28T23:34:15.933Z,11.20
2019-05-28T23:36:45.665Z,10.47
2019-05-28T23:39:20.909Z,12.80
2019-05-28T23:41:50.526Z,8.73
2019-05-28T23:44:20.074Z,11.23
2019-05-28T23:46:49.630Z,13.07
2019-05-28T23:49:20.136Z,12.27
2019-05-28T23:51:49.037Z,11.97
2019-05-28T23:54:23.401Z,13.80
2019-05-28T23:57:01.022Z,11.57
2019-05-28T23:59:30.563Z,10.33
